createdAt,value
2022-12-24T00:01:19.523Z,29.00
2022-12-24T00:03:47.044Z,33.90
2022-12-24T00:06:17.531Z,28.45
2022-12-24T00:08:44.815Z,31.33
2022-12-24T00:11:12.235Z,27.42
2022-12-24T00:13:39.565Z,33.78
2022-12-24T00:16:07.049Z,28.10
2022-12-24T00:18:37.447Z,28.85
2022-12-24T00:21:10.489Z,32.25
2022-12-24T00:23:37.783Z,25.35
2022-12-24T00:26:05.280Z,31.13
2022-12-24T00:28:32.685Z,26.13
2022-12-24T00:31:00.213Z,33.38
2022-12-24T00:33:27.589Z,34.05
2022-12-24T00:35:54.905Z,29.10
2022-12-24T00:38:22.345Z,31.60
2022-12-24T00:40:49.653Z,35.13
2022-12-24T00:43:16.953Z,27.42
2022-12-24T00:45:44.304Z,48.95
2022-12-24T00:48:11.669Z,38.55
2022-12-24T00:50:39.078Z,29.00
2022-12-24T00:53:06.491Z,26.35
2022-12-24T00:55:33.822Z,36.00
2022-12-24T00:58:01.193Z,28.65
2022-12-24T01:00:28.535Z,35.22
2022-12-24T01:02:56.047Z,25.30
2022-12-24T01:05:23.974Z,36.40
2022-12-24T01:07:51.312Z,38.47
2022-12-24T01:10:19.895Z,30.67
2022-12-24T01:12:47.644Z,39.08
2022-12-24T01:15:15.867Z,22.48
2022-12-24T01:17:43.224Z,38.05
2022-12-24T01:20:13.941Z,33.92
2022-12-24T01:22:41.532Z,34.45
2022-12-24T01:25:09.115Z,32.92
2022-12-24T01:27:36.521Z,31.38
2022-12-24T01:30:04.750Z,32.30
2022-12-24T01:32:32.622Z,25.67
2022-12-24T01:35:00.241Z,35.03
2022-12-24T01:37:27.856Z,30.70
2022-12-24T01:40:15.254Z,34.20
2022-12-24T01:43:03.711Z,27.50
2022-12-24T01:45:43.163Z,35.57
2022-12-24T01:50:37.822Z,29.75
2022-12-24T01:53:06.865Z,35.30
2022-12-24T01:55:34.209Z,38.00
2022-12-24T01:58:02.508Z,31.75
2022-12-24T02:00:29.800Z,28.98
2022-12-24T02:02:57.818Z,29.38
2022-12-24T02:05:40.090Z,34.38
2022-12-24T02:08:11.762Z,27.45
2022-12-24T02:10:39.164Z,34.28
2022-12-24T02:13:06.920Z,31.00
2022-12-24T02:16:03.692Z,36.55
2022-12-24T02:18:49.727Z,42.60
2022-12-24T02:21:22.953Z,34.08
2022-12-24T02:24:02.482Z,32.72
2022-12-24T02:27:02.557Z,25.00
2022-12-24T02:29:33.315Z,29.45
2022-12-24T02:32:12.909Z,30.13
2022-12-24T02:34:45.809Z,35.08
2022-12-24T02:37:13.069Z,23.50
2022-12-24T02:39:53.659Z,31.65
2022-12-24T02:42:27.072Z,31.38
2022-12-24T02:44:56.588Z,40.03
2022-12-24T02:47:25.761Z,28.25
2022-12-24T02:49:53.076Z,27.67
2022-12-24T02:52:40.209Z,24.88
2022-12-24T02:55:13.320Z,32.78
2022-12-24T02:57:49.513Z,25.23
2022-12-24T03:00:18.892Z,37.03
2022-12-24T03:03:07.484Z,33.95
2022-12-24T03:05:40.654Z,22.60
2022-12-24T03:08:22.917Z,22.25
2022-12-24T03:10:53.184Z,26.58
2022-12-24T03:13:21.732Z,30.33
2022-12-24T03:15:49.863Z,32.07
2022-12-24T03:18:38.936Z,29.38
2022-12-24T03:21:15.501Z,35.65
2022-12-24T03:23:43.684Z,28.15
2022-12-24T03:26:13.497Z,26.35
2022-12-24T03:28:41.892Z,30.40
2022-12-24T03:31:10.348Z,42.70
2022-12-24T03:33:37.787Z,28.92
2022-12-24T03:36:05.904Z,29.65
2022-12-24T03:38:33.737Z,34.22
2022-12-24T03:41:01.409Z,37.78
2022-12-24T03:43:28.817Z,31.63
2022-12-24T03:45:56.373Z,18.20
2022-12-24T03:48:29.010Z,29.45
2022-12-24T03:50:59.938Z,34.20
2022-12-24T03:53:27.453Z,34.17
2022-12-24T03:55:54.828Z,31.98
2022-12-24T03:58:22.294Z,30.85
2022-12-24T04:00:50.521Z,32.20
2022-12-24T04:12:24.479Z,35.35
2022-12-24T04:14:51.981Z,30.77
2022-12-24T04:17:19.460Z,23.27
2022-12-24T04:19:46.943Z,27.77
2022-12-24T04:22:14.713Z,32.05
2022-12-24T04:24:42.093Z,31.08
2022-12-24T04:27:09.471Z,32.13
2022-12-24T04:29:36.897Z,36.25
2022-12-24T04:32:04.535Z,20.92
2022-12-24T04:34:32.132Z,28.10
2022-12-24T04:36:59.631Z,36.17
2022-12-24T04:39:27.230Z,28.92
2022-12-24T04:41:54.531Z,43.70
2022-12-24T04:44:22.332Z,31.42
2022-12-24T04:46:49.772Z,43.55
2022-12-24T04:49:17.673Z,34.42
2022-12-24T04:51:45.305Z,42.30
2022-12-24T04:54:12.637Z,32.22
2022-12-24T04:56:39.901Z,36.08
2022-12-24T04:59:07.168Z,35.15
2022-12-24T05:01:34.637Z,26.48
2022-12-24T05:04:06.862Z,31.30
2022-12-24T05:06:34.499Z,35.75
2022-12-24T05:09:02.006Z,25.35
2022-12-24T05:11:29.886Z,30.38
2022-12-24T05:13:57.214Z,41.58
2022-12-24T05:16:25.141Z,37.67
2022-12-24T05:18:52.607Z,30.33
2022-12-24T05:21:23.946Z,36.05
2022-12-24T05:24:10.249Z,32.15
2022-12-24T05:26:37.699Z,30.75
2022-12-24T05:29:05.964Z,30.45
2022-12-24T05:31:33.657Z,37.00
2022-12-24T05:34:04.247Z,39.13
2022-12-24T05:36:31.777Z,39.85
2022-12-24T05:38:59.105Z,26.35
2022-12-24T05:41:26.733Z,43.67
2022-12-24T05:43:54.008Z,43.00
2022-12-24T05:46:22.147Z,35.30
2022-12-24T05:48:50.003Z,33.00
2022-12-24T05:51:22.295Z,45.20
2022-12-24T05:53:50.281Z,34.92
2022-12-24T05:56:19.512Z,39.00
2022-12-24T05:58:46.971Z,28.67
2022-12-24T06:01:15.477Z,42.90
2022-12-24T06:03:42.839Z,39.70
2022-12-24T06:06:14.844Z,37.63
2022-12-24T06:08:42.666Z,34.47
2022-12-24T06:11:13.199Z,35.88
2022-12-24T06:13:41.429Z,32.85
2022-12-24T06:16:09.865Z,37.75
2022-12-24T06:18:40.702Z,33.17
2022-12-24T06:21:10.925Z,27.08
2022-12-24T06:23:45.708Z,33.58
2022-12-24T06:26:19.891Z,36.22
2022-12-24T06:28:48.136Z,40.50
2022-12-24T06:31:16.566Z,27.48
2022-12-24T06:33:44.543Z,30.35
2022-12-24T06:36:17.761Z,32.75
2022-12-24T06:38:46.179Z,44.50
2022-12-24T06:41:13.512Z,31.23
2022-12-24T06:43:44.180Z,25.45
2022-12-24T06:46:11.641Z,36.13
2022-12-24T06:48:39.057Z,45.67
2022-12-24T06:51:06.833Z,36.55
2022-12-24T06:53:34.339Z,44.00
2022-12-24T06:56:04.412Z,40.75
2022-12-24T06:58:31.943Z,38.53
2022-12-24T07:00:59.472Z,43.10
2022-12-24T07:03:26.868Z,52.83
2022-12-24T07:05:54.638Z,27.98
2022-12-24T07:08:22.101Z,38.90
2022-12-24T07:10:54.147Z,43.30
2022-12-24T07:13:23.645Z,36.65
2022-12-24T07:15:58.696Z,37.33
2022-12-24T07:18:29.843Z,46.83
2022-12-24T07:20:57.597Z,34.47
2022-12-24T07:23:25.152Z,42.42
2022-12-24T07:25:52.769Z,46.60
2022-12-24T07:28:25.737Z,45.13
2022-12-24T07:30:57.326Z,32.25
2022-12-24T07:35:59.465Z,34.45
2022-12-24T07:38:27.080Z,35.55
2022-12-24T07:40:58.248Z,38.10
2022-12-24T07:43:26.107Z,32.70
2022-12-24T07:45:55.805Z,39.30
2022-12-24T07:48:25.372Z,49.22
2022-12-24T07:50:53.387Z,44.03
2022-12-24T07:53:21.658Z,31.27
2022-12-24T07:55:49.022Z,47.15
2022-12-24T07:58:16.433Z,38.78
2022-12-24T08:00:43.876Z,45.05
2022-12-24T08:03:19.102Z,41.22
2022-12-24T08:05:46.899Z,41.05
2022-12-24T08:08:14.640Z,37.75
2022-12-24T08:10:42.901Z,45.45
2022-12-24T08:13:10.313Z,36.55
2022-12-24T08:15:37.779Z,37.60
2022-12-24T08:18:05.298Z,46.47
2022-12-24T08:20:32.675Z,46.50
2022-12-24T08:22:59.939Z,38.00
2022-12-24T08:25:27.213Z,36.13
2022-12-24T08:27:54.475Z,43.60
2022-12-24T08:30:21.890Z,35.22
2022-12-24T08:32:49.383Z,49.50
2022-12-24T08:35:18.936Z,38.35
2022-12-24T08:37:46.280Z,48.20
2022-12-24T08:40:13.767Z,48.15
2022-12-24T08:42:41.341Z,35.35
2022-12-24T08:45:10.129Z,44.75
2022-12-24T08:47:37.450Z,48.28
2022-12-24T08:50:08.107Z,36.55
2022-12-24T08:52:35.500Z,51.97
2022-12-24T08:55:02.735Z,44.45
2022-12-24T08:57:30.106Z,44.90
2022-12-24T08:59:57.771Z,33.50
2022-12-24T09:02:25.323Z,34.85
2022-12-24T09:04:52.734Z,39.00
2022-12-24T09:07:22.807Z,40.85
2022-12-24T09:09:50.157Z,43.63
2022-12-24T09:12:18.788Z,37.58
2022-12-24T09:14:46.076Z,40.33
2022-12-24T09:17:13.607Z,42.35
2022-12-24T09:19:40.985Z,41.90
2022-12-24T09:22:08.253Z,45.17
2022-12-24T09:24:36.425Z,42.15
2022-12-24T09:27:04.185Z,49.53
2022-12-24T09:29:32.963Z,35.88
2022-12-24T09:32:00.398Z,42.30
2022-12-24T09:34:30.616Z,50.38
2022-12-24T09:36:58.402Z,48.90
2022-12-24T09:39:25.750Z,55.55
2022-12-24T09:42:08.382Z,41.97
2022-12-24T09:44:35.595Z,33.45
2022-12-24T09:47:10.229Z,44.78
2022-12-24T09:49:46.006Z,51.47
2022-12-24T09:52:14.812Z,34.15
2022-12-24T09:54:49.775Z,42.95
2022-12-24T09:57:37.957Z,36.20
2022-12-24T10:00:17.196Z,47.00
2022-12-24T10:02:44.682Z,35.45
2022-12-24T10:05:15.783Z,41.25
2022-12-24T10:07:51.918Z,40.35
2022-12-24T10:10:48.257Z,62.65
2022-12-24T10:13:24.059Z,45.53
2022-12-24T10:15:57.991Z,43.10
2022-12-24T10:18:32.958Z,39.00
2022-12-24T10:21:11.836Z,50.85
2022-12-24T10:23:42.069Z,31.63
2022-12-24T10:26:24.668Z,44.50
2022-12-24T10:29:21.418Z,45.30
2022-12-24T10:31:54.753Z,35.13
2022-12-24T10:34:23.996Z,41.13
2022-12-24T10:36:51.636Z,51.45
2022-12-24T10:39:20.929Z,36.13
2022-12-24T10:41:52.962Z,30.02
2022-12-24T10:44:22.409Z,38.05
2022-12-24T10:49:17.933Z,33.92
2022-12-24T10:52:01.344Z,39.92
2022-12-24T10:54:34.393Z,29.73
2022-12-24T10:57:02.402Z,41.15
2022-12-24T10:59:31.593Z,28.73
2022-12-24T11:01:59.899Z,49.92
2022-12-24T11:04:31.535Z,27.27
2022-12-24T11:07:03.188Z,30.67
2022-12-24T11:09:35.116Z,34.83
2022-12-24T11:12:09.005Z,29.85
2022-12-24T11:14:38.242Z,31.23
2022-12-24T11:17:05.853Z,31.65
2022-12-24T11:19:34.276Z,24.80
2022-12-24T11:22:06.137Z,31.63
2022-12-24T11:24:38.694Z,26.98
2022-12-24T11:27:30.217Z,23.55
2022-12-24T11:30:15.944Z,28.42
2022-12-24T11:32:50.683Z,25.83
2022-12-24T11:35:21.629Z,28.10
2022-12-24T11:37:50.476Z,25.85
2022-12-24T11:40:22.355Z,26.80
2022-12-24T11:42:53.871Z,28.02
2022-12-24T11:45:26.068Z,36.05
2022-12-24T11:47:56.058Z,27.90
2022-12-24T11:50:35.314Z,25.17
2022-12-24T11:53:13.667Z,27.80
2022-12-24T11:55:41.403Z,25.77
2022-12-24T11:58:20.829Z,25.63
2022-12-24T12:00:49.045Z,29.65
2022-12-24T12:03:30.051Z,28.60
2022-12-24T12:05:59.833Z,27.65
2022-12-24T12:08:28.477Z,25.13
2022-12-24T12:10:59.060Z,22.77
2022-12-24T12:13:33.065Z,29.48
2022-12-24T12:16:19.267Z,20.77
2022-12-24T12:19:08.753Z,37.65
2022-12-24T12:21:43.286Z,20.73
2022-12-24T12:24:15.595Z,22.70
2022-12-24T12:26:45.315Z,21.88
2022-12-24T12:29:25.675Z,28.00
2022-12-24T12:31:58.044Z,24.45
2022-12-24T12:34:25.578Z,18.35
2022-12-24T12:36:57.403Z,26.98
2022-12-24T12:39:24.718Z,23.50
2022-12-24T12:41:58.026Z,17.00
2022-12-24T12:44:37.424Z,18.85
2022-12-24T12:49:47.219Z,24.42
2022-12-24T12:52:27.845Z,20.95
2022-12-24T12:55:00.920Z,28.92
2022-12-24T12:57:29.412Z,23.02
2022-12-24T12:59:59.310Z,24.20
2022-12-24T13:02:32.859Z,23.75
2022-12-24T13:05:19.109Z,17.98
2022-12-24T13:07:46.368Z,17.15
2022-12-24T13:10:32.255Z,25.50
2022-12-24T13:13:05.789Z,21.25
2022-12-24T13:15:51.736Z,21.30
2022-12-24T13:18:48.335Z,28.90
2022-12-24T13:21:21.101Z,45.33
2022-12-24T13:23:48.952Z,16.80
2022-12-24T13:26:17.068Z,23.63
2022-12-24T13:28:44.525Z,47.42
2022-12-24T13:31:19.792Z,27.83
2022-12-24T13:33:48.380Z,28.08
2022-12-24T13:36:19.211Z,25.10
2022-12-24T13:38:49.353Z,26.98
2022-12-24T13:41:41.881Z,22.85
2022-12-24T13:44:11.157Z,25.25
2022-12-24T13:46:49.150Z,15.85
2022-12-24T13:49:21.235Z,23.30
2022-12-24T13:51:50.729Z,24.15
2022-12-24T13:54:20.658Z,24.63
2022-12-24T13:56:48.068Z,22.02
2022-12-24T13:59:24.476Z,20.85
2022-12-24T14:01:51.957Z,17.35
2022-12-24T14:04:24.045Z,22.75
2022-12-24T14:06:52.517Z,23.92
2022-12-24T14:09:21.130Z,23.73
2022-12-24T14:11:57.362Z,28.70
2022-12-24T14:14:29.056Z,23.27
2022-12-24T14:16:58.907Z,33.35
2022-12-24T14:19:33.667Z,24.40
2022-12-24T14:22:15.203Z,22.77
2022-12-24T14:24:43.570Z,20.45
2022-12-24T14:27:31.288Z,23.58
2022-12-24T14:29:58.801Z,17.17
2022-12-24T14:32:34.395Z,22.13
2022-12-24T14:35:07.614Z,21.83
2022-12-24T14:37:35.190Z,26.23
2022-12-24T14:40:02.577Z,23.75
2022-12-24T14:42:51.562Z,23.00
2022-12-24T14:45:38.398Z,17.38
2022-12-24T14:48:24.976Z,17.38
2022-12-24T14:50:52.239Z,19.52
2022-12-24T14:53:19.614Z,32.50
2022-12-24T14:55:48.333Z,26.70
2022-12-24T14:58:15.530Z,19.17
2022-12-24T15:00:45.631Z,20.67
2022-12-24T15:03:14.313Z,23.30
2022-12-24T15:05:41.721Z,17.40
2022-12-24T15:08:16.977Z,21.20
2022-12-24T15:10:45.247Z,15.82
2022-12-24T15:13:21.608Z,21.98
2022-12-24T15:15:52.552Z,21.35
2022-12-24T15:18:22.719Z,22.48
2022-12-24T15:20:51.804Z,26.20
2022-12-24T15:23:20.319Z,20.40
2022-12-24T15:25:47.706Z,22.13
2022-12-24T15:28:20.691Z,22.15
2022-12-24T15:30:48.131Z,28.63
2022-12-24T15:33:15.676Z,19.80
2022-12-24T15:35:56.718Z,21.60
2022-12-24T15:38:26.336Z,32.53
2022-12-24T15:40:55.455Z,45.55
2022-12-24T15:43:23.020Z,73.57
2022-12-24T15:45:50.651Z,30.25
2022-12-24T15:48:23.742Z,45.88
2022-12-24T15:50:53.083Z,28.77
2022-12-24T15:53:26.170Z,28.45
2022-12-24T15:56:05.860Z,24.80
2022-12-24T15:58:39.562Z,25.35
2022-12-24T16:01:19.222Z,33.25
2022-12-24T16:03:50.341Z,33.30
2022-12-24T16:06:18.069Z,25.00
2022-12-24T16:08:46.048Z,26.80
2022-12-24T16:11:13.401Z,40.05
2022-12-24T16:13:42.197Z,26.88
2022-12-24T16:16:11.609Z,29.27
2022-12-24T16:21:07.227Z,33.53
2022-12-24T16:23:39.004Z,26.65
2022-12-24T16:26:10.727Z,37.33
2022-12-24T16:28:38.014Z,34.20
2022-12-24T16:31:05.471Z,30.75
2022-12-24T16:33:33.272Z,22.83
2022-12-24T16:36:01.494Z,34.80
2022-12-24T16:38:48.676Z,27.17
2022-12-24T16:41:16.491Z,27.80
2022-12-24T16:43:49.561Z,28.60
2022-12-24T16:46:16.937Z,28.30
2022-12-24T16:48:46.849Z,31.67
2022-12-24T16:51:14.140Z,58.83
2022-12-24T16:53:41.472Z,33.38
2022-12-24T16:56:08.929Z,37.10
2022-12-24T16:58:36.249Z,33.70
2022-12-24T17:01:08.005Z,31.10
2022-12-24T17:03:36.427Z,31.48
2022-12-24T17:06:07.695Z,26.63
2022-12-24T17:08:35.003Z,38.35
2022-12-24T17:11:02.396Z,46.65
2022-12-24T17:13:29.853Z,35.75
2022-12-24T17:15:57.402Z,36.78
2022-12-24T17:18:24.670Z,33.45
2022-12-24T17:20:59.418Z,37.50
2022-12-24T17:23:27.533Z,39.72
2022-12-24T17:25:54.856Z,48.00
2022-12-24T17:28:22.221Z,38.83
2022-12-24T17:30:49.506Z,34.47
2022-12-24T17:33:16.844Z,41.30
2022-12-24T17:35:44.652Z,34.08
2022-12-24T17:38:11.903Z,40.22
2022-12-24T17:40:39.142Z,45.45
2022-12-24T17:43:06.503Z,39.15
2022-12-24T17:45:33.826Z,34.67
2022-12-24T17:48:01.048Z,35.80
2022-12-24T17:50:28.370Z,36.25
2022-12-24T17:52:55.723Z,43.90
2022-12-24T17:55:23.827Z,33.03
2022-12-24T17:57:51.108Z,37.70
2022-12-24T18:00:18.630Z,39.05
2022-12-24T18:02:46.025Z,33.17
2022-12-24T18:05:13.334Z,59.25
2022-12-24T18:07:40.596Z,39.17
2022-12-24T18:10:08.161Z,55.53
2022-12-24T18:12:35.468Z,68.22
2022-12-24T18:15:02.757Z,59.28
2022-12-24T18:17:30.078Z,57.70
2022-12-24T18:19:57.518Z,65.28
2022-12-24T18:22:24.772Z,110.80
2022-12-24T18:24:52.124Z,85.05
2022-12-24T18:27:19.378Z,80.75
2022-12-24T18:29:46.628Z,71.47
2022-12-24T18:32:16.932Z,62.22
2022-12-24T18:34:44.405Z,65.35
2022-12-24T18:37:11.637Z,68.82
2022-12-24T18:39:38.918Z,91.65
2022-12-24T18:42:06.187Z,101.80
2022-12-24T18:44:33.468Z,74.75
2022-12-24T18:47:00.792Z,133.73
2022-12-24T18:49:34.030Z,109.22
2022-12-24T18:52:03.713Z,73.35
2022-12-24T18:54:31.088Z,93.85
2022-12-24T18:56:58.547Z,75.03
2022-12-24T18:59:25.813Z,69.32
2022-12-24T19:01:53.335Z,64.60
2022-12-24T19:04:20.761Z,103.30
2022-12-24T19:06:53.096Z,76.13
2022-12-24T19:09:21.253Z,85.68
2022-12-24T19:11:48.539Z,80.97
2022-12-24T19:14:16.201Z,79.20
2022-12-24T19:16:43.604Z,74.47
2022-12-24T19:19:12.453Z,87.03
2022-12-24T19:21:39.978Z,54.58
2022-12-24T19:24:10.444Z,62.90
2022-12-24T19:26:38.012Z,62.42
2022-12-24T19:29:05.309Z,61.33
2022-12-24T19:31:32.642Z,62.38
2022-12-24T19:34:00.311Z,68.88
2022-12-24T19:36:28.664Z,53.42
2022-12-24T19:38:56.664Z,63.38
2022-12-24T19:41:25.041Z,69.63
2022-12-24T19:43:53.232Z,74.82
2022-12-24T19:46:22.140Z,55.15
2022-12-24T19:48:51.327Z,61.55
2022-12-24T19:51:18.759Z,68.82
2022-12-24T19:53:46.379Z,62.30
2022-12-24T19:56:17.544Z,55.40
2022-12-24T19:58:45.144Z,55.15
2022-12-24T20:01:15.874Z,60.75
2022-12-24T20:03:44.430Z,84.40
2022-12-24T20:06:12.478Z,73.15
2022-12-24T20:08:40.265Z,63.38
2022-12-24T20:11:08.536Z,54.15
2022-12-24T20:13:36.076Z,51.15
2022-12-24T20:16:07.494Z,49.65
2022-12-24T20:18:35.018Z,51.45
2022-12-24T20:21:03.406Z,65.40
2022-12-24T20:23:30.698Z,66.22
2022-12-24T20:25:59.024Z,115.00
2022-12-24T20:28:26.764Z,63.13
2022-12-24T20:30:54.055Z,68.75
2022-12-24T20:33:21.771Z,79.10
2022-12-24T20:35:49.210Z,65.10
2022-12-24T20:38:16.674Z,51.22
2022-12-24T20:40:44.736Z,62.60
2022-12-24T20:43:16.703Z,63.85
2022-12-24T20:45:52.214Z,61.53
2022-12-24T20:48:19.866Z,71.25
2022-12-24T20:50:47.151Z,61.00
2022-12-24T20:53:14.524Z,107.68
2022-12-24T20:55:41.862Z,101.53
2022-12-24T20:58:10.346Z,127.30
2022-12-24T21:00:37.659Z,88.37
2022-12-24T21:03:05.235Z,116.55
2022-12-24T21:05:32.520Z,101.22
2022-12-24T21:07:59.833Z,90.85
2022-12-24T21:10:33.847Z,94.85
2022-12-24T21:13:01.687Z,107.43
2022-12-24T21:15:30.732Z,105.32
2022-12-24T21:18:01.634Z,95.28
2022-12-24T21:20:30.828Z,87.60
2022-12-24T21:25:28.695Z,71.45
2022-12-24T21:27:56.053Z,65.25
2022-12-24T21:30:24.091Z,57.75
2022-12-24T21:32:51.627Z,72.03
2022-12-24T21:35:19.155Z,56.10
2022-12-24T21:37:46.414Z,53.33
2022-12-24T21:40:13.847Z,59.60
2022-12-24T21:42:41.223Z,62.20
2022-12-24T21:45:08.835Z,67.78
2022-12-24T21:47:38.142Z,69.05
2022-12-24T21:50:28.311Z,52.25
2022-12-24T21:53:21.285Z,59.95
2022-12-24T21:58:27.908Z,70.63
2022-12-24T22:01:19.744Z,53.17
2022-12-24T22:03:50.647Z,65.43
2022-12-24T22:06:37.065Z,60.95
2022-12-24T22:09:40.073Z,56.03
2022-12-24T22:12:07.352Z,50.80
2022-12-24T22:14:34.731Z,72.57
2022-12-24T22:17:02.302Z,52.63
2022-12-24T22:19:29.737Z,56.83
2022-12-24T22:21:57.049Z,54.28
2022-12-24T22:24:25.721Z,54.95
2022-12-24T22:29:34.040Z,56.05
2022-12-24T22:35:48.991Z,46.72
2022-12-24T22:38:16.235Z,53.33
2022-12-24T22:40:43.498Z,52.67
2022-12-24T22:43:11.627Z,57.40
2022-12-24T22:45:40.163Z,54.35
2022-12-24T22:48:07.653Z,50.80
2022-12-24T22:50:35.057Z,52.60
2022-12-24T22:53:02.529Z,54.22
2022-12-24T22:55:30.702Z,56.13
2022-12-24T22:57:57.961Z,62.03
2022-12-24T23:00:43.041Z,50.40
2022-12-24T23:03:11.405Z,48.85
2022-12-24T23:05:39.246Z,60.87
2022-12-24T23:08:07.111Z,49.28
2022-12-24T23:10:34.469Z,60.88
2022-12-24T23:13:20.837Z,49.10
2022-12-24T23:15:48.164Z,53.47
2022-12-24T23:18:15.539Z,45.47
2022-12-24T23:20:47.327Z,45.40
2022-12-24T23:23:15.511Z,46.72
2022-12-24T23:25:42.784Z,49.38
2022-12-24T23:28:10.127Z,50.03
2022-12-24T23:30:37.393Z,58.58
2022-12-24T23:33:04.801Z,53.80
2022-12-24T23:35:35.849Z,54.17
2022-12-24T23:38:03.160Z,54.95
2022-12-24T23:40:30.808Z,53.78
2022-12-24T23:46:01.892Z,57.58
2022-12-24T23:48:30.513Z,63.08
2022-12-24T23:51:15.585Z,55.97
2022-12-24T23:53:42.965Z,57.47
2022-12-24T23:56:14.606Z,50.72
2022-12-24T23:58:42.738Z,62.58
